createdAt,value
2019-01-11T00:00:09.452Z,1017.63
2019-01-11T00:01:09.504Z,1017.63
2019-01-11T00:02:09.436Z,1017.68
2019-01-11T00:03:10.415Z,1017.65
2019-01-11T00:04:09.308Z,1017.57
2019-01-11T00:05:09.266Z,1017.59
2019-01-11T00:06:09.297Z,1017.59
2019-01-11T00:07:09.201Z,1017.54
2019-01-11T00:08:09.252Z,1017.59
2019-01-11T00:09:09.123Z,1017.60
2019-01-11T00:10:09.116Z,1017.54
2019-01-11T00:11:09.073Z,1017.60
2019-01-11T00:12:09.098Z,1017.61
2019-01-11T00:13:09.101Z,1017.54
2019-01-11T00:14:08.970Z,1017.51
2019-01-11T00:15:08.951Z,1017.52
2019-01-11T00:16:08.919Z,1017.52
2019-01-11T00:17:08.905Z,1017.46
2019-01-11T00:18:08.837Z,1017.49
2019-01-11T00:19:08.811Z,1017.45
2019-01-11T00:20:08.774Z,1017.47
2019-01-11T00:21:08.770Z,1017.40
2019-01-11T00:22:08.701Z,1017.42
2019-01-11T00:23:08.673Z,1017.45
2019-01-11T00:24:08.639Z,1017.41
2019-01-11T00:25:08.624Z,1017.45
2019-01-11T00:26:08.593Z,1017.43
2019-01-11T00:27:08.569Z,1017.41
2019-01-11T00:28:08.531Z,1017.44
2019-01-11T00:29:08.491Z,1017.46
2019-01-11T00:30:08.469Z,1017.39
2019-01-11T00:31:08.415Z,1017.34
2019-01-11T00:32:08.372Z,1017.35
2019-01-11T00:33:08.349Z,1017.39
2019-01-11T00:34:08.315Z,1017.36
2019-01-11T00:35:08.282Z,1017.38
2019-01-11T00:36:08.241Z,1017.36
2019-01-11T00:37:08.219Z,1017.37
2019-01-11T00:38:08.190Z,1017.33
2019-01-11T00:39:08.147Z,1017.32
2019-01-11T00:40:08.118Z,1017.30
2019-01-11T00:41:08.093Z,1017.27
2019-01-11T00:42:08.062Z,1017.26
2019-01-11T00:43:08.028Z,1017.29
2019-01-11T00:44:08.018Z,1017.26
2019-01-11T00:45:07.954Z,1017.27
2019-01-11T00:46:07.919Z,1017.22
2019-01-11T00:47:07.902Z,1017.20
2019-01-11T00:48:07.838Z,1017.21
2019-01-11T00:49:13.395Z,1017.17
2019-01-11T00:50:07.783Z,1017.14
2019-01-11T00:51:07.766Z,1017.09
2019-01-11T00:52:07.773Z,1017.11
2019-01-11T00:53:07.685Z,1017.09
2019-01-11T00:54:07.664Z,1017.10
2019-01-11T00:55:07.636Z,1017.13
2019-01-11T00:56:07.593Z,1017.09
2019-01-11T00:57:07.554Z,1017.11
2019-01-11T00:58:07.523Z,1017.10
2019-01-11T00:59:07.496Z,1017.12
2019-01-11T01:00:07.492Z,1017.09
2019-01-11T01:01:07.421Z,1017.13
2019-01-11T01:02:07.504Z,1017.12
2019-01-11T01:03:07.358Z,1017.11
2019-01-11T01:04:07.329Z,1017.10
2019-01-11T01:05:07.416Z,1017.10
2019-01-11T01:06:07.278Z,1017.10
2019-01-11T01:07:07.246Z,1017.06
2019-01-11T01:08:07.212Z,1017.08
2019-01-11T01:09:07.257Z,1017.08
2019-01-11T01:10:07.127Z,1017.10
2019-01-11T01:11:07.103Z,1017.10
2019-01-11T01:12:07.093Z,1017.04
2019-01-11T01:13:07.038Z,1017.09
2019-01-11T01:14:06.992Z,1017.10
2019-01-11T01:15:08.105Z,1017.11
2019-01-11T01:16:06.951Z,1017.09
2019-01-11T01:17:06.916Z,1017.06
2019-01-11T01:18:06.873Z,1017.08
2019-01-11T01:19:06.848Z,1017.07
2019-01-11T01:20:06.797Z,1017.06
2019-01-11T01:21:06.880Z,1017.08
2019-01-11T01:22:06.739Z,1017.07
2019-01-11T01:23:06.702Z,1017.06
2019-01-11T01:24:06.679Z,1017.05
2019-01-11T01:25:06.684Z,1017.02
2019-01-11T01:26:06.598Z,1017.00
2019-01-11T01:27:06.578Z,1017.01
2019-01-11T01:28:06.545Z,1017.03
2019-01-11T01:29:06.536Z,1016.98
2019-01-11T01:30:06.480Z,1017.03
2019-01-11T01:31:06.459Z,1016.96
2019-01-11T01:32:06.404Z,1016.96
2019-01-11T01:33:06.461Z,1016.97
2019-01-11T01:34:06.353Z,1016.93
2019-01-11T01:35:06.375Z,1016.92
2019-01-11T01:36:06.276Z,1016.97
2019-01-11T01:37:06.231Z,1016.93
2019-01-11T01:38:06.323Z,1016.96
2019-01-11T01:39:06.176Z,1016.92
2019-01-11T01:40:06.212Z,1016.89
2019-01-11T01:41:06.106Z,1016.85
2019-01-11T01:42:06.082Z,1016.90
2019-01-11T01:43:06.045Z,1016.89
2019-01-11T01:44:06.135Z,1016.87
2019-01-11T01:45:06.000Z,1016.89
2019-01-11T01:46:06.044Z,1016.88
2019-01-11T01:47:05.920Z,1016.79
2019-01-11T01:48:05.951Z,1016.82
2019-01-11T01:49:05.847Z,1016.80
2019-01-11T01:50:05.808Z,1016.82
2019-01-11T01:51:05.788Z,1016.79
2019-01-11T01:52:05.763Z,1016.74
2019-01-11T01:53:05.737Z,1016.73
2019-01-11T01:54:05.680Z,1016.74
2019-01-11T01:55:05.716Z,1016.74
2019-01-11T01:56:05.613Z,1016.68
2019-01-11T01:57:07.391Z,1016.69
2019-01-11T01:58:06.620Z,1016.66
2019-01-11T01:59:05.523Z,1016.63
2019-01-11T02:00:05.583Z,1016.63
2019-01-11T02:01:05.464Z,1016.63
2019-01-11T02:02:05.443Z,1016.59
2019-01-11T02:03:06.419Z,1016.58
2019-01-11T02:04:05.364Z,1016.61
2019-01-11T02:05:05.397Z,1016.61
2019-01-11T02:06:05.278Z,1016.57
2019-01-11T02:07:05.250Z,1016.58
2019-01-11T02:08:05.356Z,1016.58
2019-01-11T02:09:05.198Z,1016.65
2019-01-11T02:10:05.159Z,1016.61
2019-01-11T02:11:06.154Z,1016.63
2019-01-11T02:12:05.099Z,1016.57
2019-01-11T02:13:05.082Z,1016.57
2019-01-11T02:14:05.035Z,1016.53
2019-01-11T02:15:04.989Z,1016.61
2019-01-11T02:16:04.985Z,1016.59
2019-01-11T02:17:04.938Z,1016.56
2019-01-11T02:18:04.981Z,1016.54
2019-01-11T02:19:04.852Z,1016.53
2019-01-11T02:20:11.432Z,1016.53
2019-01-11T02:21:04.790Z,1016.50
2019-01-11T02:22:05.811Z,1016.44
2019-01-11T02:23:04.726Z,1016.46
2019-01-11T02:24:04.811Z,1016.38
2019-01-11T02:25:04.688Z,1016.41
2019-01-11T02:26:04.726Z,1016.43
2019-01-11T02:27:04.595Z,1016.39
2019-01-11T02:28:05.714Z,1016.40
2019-01-11T02:29:04.532Z,1016.41
2019-01-11T02:30:04.550Z,1016.39
2019-01-11T02:31:04.470Z,1016.32
2019-01-11T02:32:04.445Z,1016.30
2019-01-11T02:33:04.416Z,1016.26
2019-01-11T02:34:04.359Z,1016.24
2019-01-11T02:35:04.342Z,1016.25
2019-01-11T02:36:04.302Z,1016.23
2019-01-11T02:37:04.314Z,1016.25
2019-01-11T02:38:04.230Z,1016.24
2019-01-11T02:39:04.295Z,1016.25
2019-01-11T02:40:04.162Z,1016.23
2019-01-11T02:41:04.197Z,1016.25
2019-01-11T02:42:04.162Z,1016.23
2019-01-11T02:43:04.102Z,1016.19
2019-01-11T02:44:04.044Z,1016.24
2019-01-11T02:45:04.005Z,1016.19
2019-01-11T02:46:03.975Z,1016.18
2019-01-11T02:47:03.947Z,1016.23
2019-01-11T02:48:03.904Z,1016.29
2019-01-11T02:49:03.883Z,1016.22
2019-01-11T02:50:03.871Z,1016.24
2019-01-11T02:51:03.827Z,1016.23
2019-01-11T02:52:03.786Z,1016.24
2019-01-11T02:53:03.739Z,1016.28
2019-01-11T02:54:03.718Z,1016.24
2019-01-11T02:55:03.678Z,1016.26
2019-01-11T02:56:03.652Z,1016.28
2019-01-11T02:57:03.614Z,1016.23
2019-01-11T02:58:03.596Z,1016.22
2019-01-11T02:59:03.613Z,1016.18
2019-01-11T03:00:03.508Z,1016.17
2019-01-11T03:01:03.499Z,1016.19
2019-01-11T03:02:03.467Z,1016.14
2019-01-11T03:03:03.558Z,1016.14
2019-01-11T03:04:03.392Z,1016.21
2019-01-11T03:05:03.447Z,1016.16
2019-01-11T03:06:03.316Z,1016.17
2019-01-11T03:07:03.353Z,1016.18
2019-01-11T03:08:03.234Z,1016.19
2019-01-11T03:09:03.263Z,1016.18
2019-01-11T03:10:03.178Z,1016.15
2019-01-11T03:11:03.168Z,1016.12
2019-01-11T03:12:03.140Z,1016.12
2019-01-11T03:13:03.181Z,1016.16
2019-01-11T03:14:03.063Z,1016.11
2019-01-11T03:15:03.109Z,1016.11
2019-01-11T03:16:03.039Z,1016.07
2019-01-11T03:17:02.981Z,1016.06
2019-01-11T03:18:02.924Z,1016.01
2019-01-11T03:19:03.913Z,1015.95
2019-01-11T03:20:02.864Z,1015.97
2019-01-11T03:21:03.931Z,1015.94
2019-01-11T03:22:02.783Z,1015.95
2019-01-11T03:23:02.854Z,1015.92
2019-01-11T03:24:02.733Z,1015.87
2019-01-11T03:25:03.813Z,1015.88
2019-01-11T03:26:02.669Z,1015.85
2019-01-11T03:27:02.692Z,1015.87
2019-01-11T03:28:02.607Z,1015.82
2019-01-11T03:29:02.589Z,1015.82
2019-01-11T03:30:02.559Z,1015.84
2019-01-11T03:31:02.612Z,1015.78
2019-01-11T03:32:02.476Z,1015.82
2019-01-11T03:33:02.574Z,1015.72
2019-01-11T03:34:02.398Z,1015.73
2019-01-11T03:35:02.434Z,1015.78
2019-01-11T03:36:02.321Z,1015.73
2019-01-11T03:37:02.399Z,1015.74
2019-01-11T03:38:02.264Z,1015.75
2019-01-11T03:39:02.327Z,1015.76
2019-01-11T03:40:02.184Z,1015.73
2019-01-11T03:41:02.269Z,1015.74
2019-01-11T03:42:02.173Z,1015.79
2019-01-11T03:43:03.919Z,1015.74
2019-01-11T03:44:02.116Z,1015.77
2019-01-11T03:45:02.038Z,1015.75
2019-01-11T03:46:03.041Z,1015.75
2019-01-11T03:47:01.971Z,1015.80
2019-01-11T03:48:02.030Z,1015.75
2019-01-11T03:49:01.906Z,1015.76
2019-01-11T03:50:01.941Z,1015.75
2019-01-11T03:51:01.852Z,1015.78
2019-01-11T03:52:01.884Z,1015.77
2019-01-11T03:53:01.760Z,1015.76
2019-01-11T03:54:01.810Z,1015.75
2019-01-11T03:55:01.707Z,1015.71
2019-01-11T03:56:01.688Z,1015.68
2019-01-11T03:57:01.650Z,1015.72
2019-01-11T03:58:01.712Z,1015.66
2019-01-11T03:59:01.572Z,1015.65
2019-01-11T04:00:01.610Z,1015.63
2019-01-11T04:01:01.511Z,1015.67
2019-01-11T04:02:01.544Z,1015.65
2019-01-11T04:03:01.478Z,1015.67
2019-01-11T04:04:01.963Z,1015.67
2019-01-11T04:05:01.362Z,1015.67
2019-01-11T04:06:01.470Z,1015.67
2019-01-11T04:07:01.340Z,1015.64
2019-01-11T04:08:01.382Z,1015.66
2019-01-11T04:09:01.242Z,1015.66
2019-01-11T04:10:02.309Z,1015.67
2019-01-11T04:11:01.179Z,1015.70
2019-01-11T04:12:01.170Z,1015.70
2019-01-11T04:13:01.131Z,1015.70
2019-01-11T04:14:01.091Z,1015.66
2019-01-11T04:15:01.055Z,1015.68
2019-01-11T04:16:01.121Z,1015.68
2019-01-11T04:17:00.979Z,1015.72
2019-01-11T04:18:01.028Z,1015.74
2019-01-11T04:19:00.917Z,1015.70
2019-01-11T04:20:02.176Z,1015.70
2019-01-11T04:21:00.859Z,1015.67
2019-01-11T04:22:01.874Z,1015.73
2019-01-11T04:23:00.770Z,1015.72
2019-01-11T04:24:00.861Z,1015.71
2019-01-11T04:25:00.715Z,1015.72
2019-01-11T04:26:00.777Z,1015.69
2019-01-11T04:27:00.649Z,1015.67
2019-01-11T04:28:00.667Z,1015.67
2019-01-11T04:29:00.587Z,1015.63
2019-01-11T04:30:00.603Z,1015.57
2019-01-11T04:31:00.514Z,1015.57
2019-01-11T04:32:02.566Z,1015.54
2019-01-11T04:33:00.464Z,1015.47
2019-01-11T04:34:01.453Z,1015.44
2019-01-11T04:35:00.388Z,1015.43
2019-01-11T04:36:00.444Z,1015.40
2019-01-11T04:37:00.327Z,1015.36
2019-01-11T04:38:00.336Z,1015.42
2019-01-11T04:39:00.257Z,1015.37
2019-01-11T04:40:00.278Z,1015.38
2019-01-11T04:41:00.259Z,1015.45
2019-01-11T04:42:00.264Z,1015.42
2019-01-11T04:43:00.119Z,1015.42
2019-01-11T04:44:00.176Z,1015.46
2019-01-11T04:45:00.061Z,1015.46
2019-01-11T04:46:00.100Z,1015.44
2019-01-11T04:46:59.996Z,1015.43
2019-01-11T04:47:59.978Z,1015.45
2019-01-11T04:48:59.932Z,1015.46
2019-01-11T04:50:01.016Z,1015.46
2019-01-11T04:50:59.849Z,1015.45
2019-01-11T04:51:59.907Z,1015.47
2019-01-11T04:52:59.811Z,1015.48
2019-01-11T04:53:59.814Z,1015.48
2019-01-11T04:54:59.732Z,1015.46
2019-01-11T04:55:59.732Z,1015.46
2019-01-11T04:56:59.666Z,1015.47
2019-01-11T04:57:59.760Z,1015.49
2019-01-11T04:58:59.608Z,1015.48
2019-01-11T04:59:59.645Z,1015.50
2019-01-11T05:00:59.527Z,1015.48
2019-01-11T05:01:59.558Z,1015.49
2019-01-11T05:02:59.466Z,1015.57
2019-01-11T05:04:00.494Z,1015.51
2019-01-11T05:04:59.403Z,1015.52
2019-01-11T05:05:59.496Z,1015.49
2019-01-11T05:06:59.344Z,1015.49
2019-01-11T05:07:59.408Z,1015.47
2019-01-11T05:08:59.278Z,1015.45
2019-01-11T05:09:59.321Z,1015.43
2019-01-11T05:10:59.257Z,1015.39
2019-01-11T05:11:59.227Z,1015.40
2019-01-11T05:12:59.132Z,1015.33
2019-01-11T05:13:59.112Z,1015.36
2019-01-11T05:14:59.061Z,1015.35
2019-01-11T05:15:59.136Z,1015.40
2019-01-11T05:16:59.018Z,1015.39
2019-01-11T05:17:59.051Z,1015.38
2019-01-11T05:18:58.936Z,1015.31
2019-01-11T05:19:58.968Z,1015.31
2019-01-11T05:20:58.873Z,1015.33
2019-01-11T05:21:58.882Z,1015.26
2019-01-11T05:22:58.865Z,1015.28
2019-01-11T05:23:58.792Z,1015.29
2019-01-11T05:24:58.780Z,1015.25
2019-01-11T05:25:58.819Z,1015.23
2019-01-11T05:26:58.680Z,1015.23
2019-01-11T05:27:59.742Z,1015.31
2019-01-11T05:28:58.615Z,1015.30
2019-01-11T05:30:00.449Z,1015.25
2019-01-11T05:30:58.551Z,1015.23
2019-01-11T05:31:58.617Z,1015.26
2019-01-11T05:32:58.472Z,1015.25
2019-01-11T05:33:58.452Z,1015.24
2019-01-11T05:34:58.511Z,1015.26
2019-01-11T05:35:58.373Z,1015.31
2019-01-11T05:36:58.334Z,1015.27
2019-01-11T05:37:58.374Z,1015.24
2019-01-11T05:38:58.279Z,1015.27
2019-01-11T05:39:58.264Z,1015.27
2019-01-11T05:40:58.202Z,1015.26
2019-01-11T05:41:58.167Z,1015.26
2019-01-11T05:42:58.144Z,1015.21
2019-01-11T05:43:58.119Z,1015.25
2019-01-11T05:44:58.080Z,1015.23
2019-01-11T05:45:58.077Z,1015.24
2019-01-11T05:46:58.045Z,1015.22
2019-01-11T05:47:58.087Z,1015.21
2019-01-11T05:48:57.994Z,1015.20
2019-01-11T05:49:57.992Z,1015.24
2019-01-11T05:50:57.903Z,1015.19
2019-01-11T05:51:57.915Z,1015.22
2019-01-11T05:52:57.820Z,1015.19
2019-01-11T05:53:59.872Z,1015.18
2019-01-11T05:54:57.739Z,1015.14
2019-01-11T05:55:57.735Z,1015.19
2019-01-11T05:56:57.710Z,1015.15
2019-01-11T05:57:57.753Z,1015.17
2019-01-11T05:58:57.626Z,1015.15
2019-01-11T05:59:57.682Z,1015.11
2019-01-11T06:00:57.549Z,1015.14
2019-01-11T06:01:57.571Z,1015.12
2019-01-11T06:02:57.483Z,1015.14
2019-01-11T06:03:57.485Z,1015.16
2019-01-11T06:04:57.416Z,1015.13
2019-01-11T06:05:57.441Z,1015.18
2019-01-11T06:06:57.342Z,1015.20
2019-01-11T06:07:58.367Z,1015.24
2019-01-11T06:08:57.279Z,1015.23
2019-01-11T06:09:57.362Z,1015.24
2019-01-11T06:10:57.227Z,1015.22
2019-01-11T06:11:57.355Z,1015.26
2019-01-11T06:12:57.175Z,1015.25
2019-01-11T06:13:58.218Z,1015.28
2019-01-11T06:14:57.083Z,1015.30
2019-01-11T06:15:57.097Z,1015.28
2019-01-11T06:16:57.035Z,1015.32
2019-01-11T06:17:57.119Z,1015.31
2019-01-11T06:18:56.963Z,1015.27
2019-01-11T06:19:57.024Z,1015.30
2019-01-11T06:20:56.895Z,1015.26
2019-01-11T06:21:56.936Z,1015.26
2019-01-11T06:22:56.821Z,1015.26
2019-01-11T06:23:56.852Z,1015.28
2019-01-11T06:24:56.757Z,1015.25
2019-01-11T06:25:56.752Z,1015.24
2019-01-11T06:26:56.689Z,1015.29
2019-01-11T06:27:56.777Z,1015.27
2019-01-11T06:28:56.634Z,1015.25
2019-01-11T06:29:56.606Z,1015.22
2019-01-11T06:30:56.791Z,1015.20
2019-01-11T06:31:56.535Z,1015.17
2019-01-11T06:32:56.506Z,1015.22
2019-01-11T06:33:56.465Z,1015.21
2019-01-11T06:34:56.428Z,1015.21
2019-01-11T06:35:56.400Z,1015.24
2019-01-11T06:36:56.413Z,1015.20
2019-01-11T06:37:56.332Z,1015.21
2019-01-11T06:38:56.319Z,1015.19
2019-01-11T06:39:56.354Z,1015.21
2019-01-11T06:40:56.335Z,1015.16
2019-01-11T06:41:56.207Z,1015.20
2019-01-11T06:42:56.167Z,1015.20
2019-01-11T06:43:56.176Z,1015.22
2019-01-11T06:44:56.114Z,1015.25
2019-01-11T06:45:56.073Z,1015.21
2019-01-11T06:46:56.041Z,1015.21
2019-01-11T06:47:56.069Z,1015.18
2019-01-11T06:48:55.987Z,1015.15
2019-01-11T06:49:55.935Z,1015.12
2019-01-11T06:50:55.996Z,1015.17
2019-01-11T06:51:55.866Z,1015.13
2019-01-11T06:52:55.853Z,1015.16
2019-01-11T06:53:55.806Z,1015.14
2019-01-11T06:54:55.761Z,1015.12
2019-01-11T06:55:55.750Z,1015.12
2019-01-11T06:56:55.701Z,1015.05
2019-01-11T06:57:55.678Z,1015.10
2019-01-11T06:58:55.662Z,1015.07
2019-01-11T06:59:55.609Z,1015.03
2019-01-11T07:00:55.595Z,1015.09
2019-01-11T07:01:55.551Z,1015.04
2019-01-11T07:02:55.518Z,1015.05
2019-01-11T07:03:55.476Z,1015.09
2019-01-11T07:04:55.439Z,1015.12
2019-01-11T07:05:55.407Z,1015.09
2019-01-11T07:06:55.478Z,1015.15
2019-01-11T07:07:55.338Z,1015.17
2019-01-11T07:08:55.331Z,1015.26
2019-01-11T07:09:55.295Z,1015.34
2019-01-11T07:10:55.228Z,1015.34
2019-01-11T07:11:55.307Z,1015.35
2019-01-11T07:12:55.187Z,1015.33
2019-01-11T07:13:55.255Z,1015.37
2019-01-11T07:14:55.108Z,1015.35
2019-01-11T07:15:55.154Z,1015.32
2019-01-11T07:16:55.058Z,1015.34
2019-01-11T07:17:55.066Z,1015.33
2019-01-11T07:18:55.017Z,1015.30
2019-01-11T07:19:55.066Z,1015.33
2019-01-11T07:20:54.951Z,1015.33
2019-01-11T07:21:56.960Z,1015.36
2019-01-11T07:22:54.854Z,1015.32
2019-01-11T07:23:54.914Z,1015.37
2019-01-11T07:24:54.802Z,1015.38
2019-01-11T07:25:54.837Z,1015.43
2019-01-11T07:26:54.771Z,1015.40
2019-01-11T07:27:55.762Z,1015.36
2019-01-11T07:28:54.682Z,1015.38
2019-01-11T07:29:54.721Z,1015.37
2019-01-11T07:30:54.693Z,1015.35
2019-01-11T07:31:54.630Z,1015.34
2019-01-11T07:32:54.533Z,1015.31
2019-01-11T07:33:54.540Z,1015.31
2019-01-11T07:34:54.473Z,1015.31
2019-01-11T07:35:54.434Z,1015.33
2019-01-11T07:36:54.450Z,1015.30
2019-01-11T07:37:54.362Z,1015.29
2019-01-11T07:38:54.388Z,1015.33
2019-01-11T07:39:54.334Z,1015.29
2019-01-11T07:40:56.352Z,1015.29
2019-01-11T07:41:54.222Z,1015.37
2019-01-11T07:43:01.059Z,1015.33
2019-01-11T07:43:54.189Z,1015.33
2019-01-11T07:44:54.228Z,1015.36
2019-01-11T07:45:54.101Z,1015.33
2019-01-11T07:46:56.157Z,1015.34
2019-01-11T07:47:54.064Z,1015.30
2019-01-11T07:48:54.043Z,1015.24
2019-01-11T07:49:53.997Z,1015.15
2019-01-11T07:51:30.651Z,1015.17
2019-01-11T07:51:53.986Z,1015.17
2019-01-11T07:52:53.877Z,1015.23
2019-01-11T07:53:53.852Z,1015.22
2019-01-11T07:54:53.799Z,1015.18
2019-01-11T07:56:09.563Z,1015.16
2019-01-11T07:56:53.735Z,1015.14
2019-01-11T07:58:10.770Z,1015.17
2019-01-11T07:58:53.699Z,1015.19
2019-01-11T08:00:00.595Z,1015.18
2019-01-11T08:00:53.651Z,1015.20
2019-01-11T08:01:53.635Z,1015.15
2019-01-11T08:02:53.615Z,1015.14
2019-01-11T08:03:54.656Z,1015.10
2019-01-11T08:04:53.497Z,1015.14
2019-01-11T08:05:53.536Z,1015.21
2019-01-11T08:06:53.428Z,1015.23
2019-01-11T08:08:29.091Z,1015.25
2019-01-11T08:08:53.837Z,1015.27
2019-01-11T08:09:53.380Z,1015.22
2019-01-11T08:10:53.365Z,1015.17
2019-01-11T08:11:53.247Z,1015.20
2019-01-11T08:12:54.285Z,1015.23
2019-01-11T08:13:53.190Z,1015.24
2019-01-11T08:14:53.150Z,1015.25
2019-01-11T08:15:53.117Z,1015.27
2019-01-11T08:16:53.179Z,1015.30
2019-01-11T08:17:53.052Z,1015.30
2019-01-11T08:18:55.087Z,1015.25
2019-01-11T08:19:52.975Z,1015.26
2019-01-11T08:20:56.312Z,1015.27
2019-01-11T08:21:52.917Z,1015.26
2019-01-11T08:23:13.935Z,1015.33
2019-01-11T08:23:52.846Z,1015.38
2019-01-11T08:24:59.518Z,1015.37
2019-01-11T08:25:52.866Z,1015.36
2019-01-11T08:27:07.525Z,1015.36
2019-01-11T08:27:52.721Z,1015.36
2019-01-11T08:28:53.781Z,1015.36
2019-01-11T08:29:52.657Z,1015.34
2019-01-11T08:30:54.629Z,1015.34
2019-01-11T08:31:52.590Z,1015.28
2019-01-11T08:32:52.590Z,1015.29
2019-01-11T08:33:52.536Z,1015.31
2019-01-11T08:34:52.496Z,1015.34
2019-01-11T08:35:52.462Z,1015.31
2019-01-11T08:36:52.415Z,1015.31
2019-01-11T08:37:52.368Z,1015.25
2019-01-11T08:38:52.335Z,1015.27
2019-01-11T08:39:52.311Z,1015.23
2019-01-11T08:40:52.284Z,1015.27
2019-01-11T08:41:52.248Z,1015.25
2019-01-11T08:42:52.354Z,1015.28
2019-01-11T08:43:52.185Z,1015.27
2019-01-11T08:44:52.143Z,1015.30
2019-01-11T08:45:52.180Z,1015.24
2019-01-11T08:46:52.091Z,1015.23
2019-01-11T08:47:52.083Z,1015.25
2019-01-11T08:48:52.020Z,1015.27
2019-01-11T08:49:51.977Z,1015.28
2019-01-11T08:50:51.938Z,1015.35
2019-01-11T08:51:51.905Z,1015.32
2019-01-11T08:52:51.875Z,1015.28
2019-01-11T08:53:51.924Z,1015.27
2019-01-11T08:54:51.823Z,1015.30
2019-01-11T08:55:51.873Z,1015.27
2019-01-11T08:56:51.743Z,1015.26
2019-01-11T08:57:51.715Z,1015.27
2019-01-11T08:58:51.687Z,1015.26
2019-01-11T08:59:51.708Z,1015.27
2019-01-11T09:00:51.647Z,1015.24
2019-01-11T09:01:51.622Z,1015.24
2019-01-11T09:02:51.572Z,1015.25
2019-01-11T09:03:51.651Z,1015.24
2019-01-11T09:04:51.500Z,1015.19
2019-01-11T09:05:51.459Z,1015.14
2019-01-11T09:06:51.416Z,1015.14
2019-01-11T09:07:51.390Z,1015.12
2019-01-11T09:08:51.350Z,1015.09
2019-01-11T09:09:51.343Z,1015.09
2019-01-11T09:10:51.302Z,1015.08
2019-01-11T09:11:51.282Z,1015.01
2019-01-11T09:12:51.223Z,1015.01
2019-01-11T09:13:51.175Z,1014.97
2019-01-11T09:14:51.152Z,1015.03
2019-01-11T09:15:51.123Z,1014.98
2019-01-11T09:16:51.134Z,1014.96
2019-01-11T09:17:51.051Z,1014.89
2019-01-11T09:18:51.124Z,1014.92
2019-01-11T09:19:50.985Z,1014.97
2019-01-11T09:20:50.945Z,1014.98
2019-01-11T09:21:50.940Z,1015.02
2019-01-11T09:22:50.889Z,1015.05
2019-01-11T09:23:50.853Z,1015.01
2019-01-11T09:24:50.828Z,1015.05
2019-01-11T09:25:50.784Z,1015.04
2019-01-11T09:26:51.565Z,1015.07
2019-01-11T09:27:50.730Z,1015.03
2019-01-11T09:28:50.717Z,1015.04
2019-01-11T09:29:50.654Z,1014.96
2019-01-11T09:30:50.641Z,1015.00
2019-01-11T09:31:50.618Z,1015.02
2019-01-11T09:32:50.658Z,1015.01
2019-01-11T09:33:50.603Z,1015.01
2019-01-11T09:34:50.491Z,1015.04
2019-01-11T09:35:50.455Z,1015.04
2019-01-11T09:36:50.482Z,1014.99
2019-01-11T09:37:50.393Z,1015.04
2019-01-11T09:38:50.370Z,1014.99
2019-01-11T09:39:50.407Z,1015.01
2019-01-11T09:40:50.296Z,1014.89
2019-01-11T09:41:50.271Z,1014.95
2019-01-11T09:42:50.226Z,1014.94
2019-01-11T09:43:50.193Z,1014.89
2019-01-11T09:44:50.163Z,1014.89
2019-01-11T09:45:50.123Z,1014.91
2019-01-11T09:46:50.212Z,1014.96
2019-01-11T09:47:50.065Z,1014.92
2019-01-11T09:48:50.032Z,1014.92
2019-01-11T09:49:50.015Z,1014.94
2019-01-11T09:50:49.974Z,1014.95
2019-01-11T09:51:49.979Z,1015.02
2019-01-11T09:52:49.909Z,1014.97
2019-01-11T09:53:49.997Z,1015.02
2019-01-11T09:54:49.853Z,1015.05
2019-01-11T09:55:49.907Z,1015.04
2019-01-11T09:56:49.776Z,1015.04
2019-01-11T09:57:49.813Z,1015.08
2019-01-11T09:58:49.704Z,1015.10
2019-01-11T09:59:49.780Z,1015.08
2019-01-11T10:00:49.643Z,1015.12
2019-01-11T10:01:49.607Z,1015.14
2019-01-11T10:02:49.600Z,1015.11
2019-01-11T10:03:49.595Z,1015.15
2019-01-11T10:04:49.538Z,1015.14
2019-01-11T10:06:19.201Z,1015.13
2019-01-11T10:06:49.484Z,1015.12
2019-01-11T10:07:49.431Z,1015.07
2019-01-11T10:08:51.511Z,1015.04
2019-01-11T10:09:49.353Z,1015.01
2019-01-11T10:11:27.175Z,1015.00
2019-01-11T10:11:49.347Z,1015.04
2019-01-11T10:12:49.273Z,1015.02
2019-01-11T10:13:57.063Z,1015.04
2019-01-11T10:14:49.217Z,1014.99
2019-01-11T10:15:49.196Z,1014.96
2019-01-11T10:16:49.137Z,1015.00
2019-01-11T10:18:18.073Z,1014.99
2019-01-11T10:18:49.040Z,1015.00
2019-01-11T10:19:49.013Z,1015.02
2019-01-11T10:24:04.707Z,1015.02
2019-01-11T10:24:49.520Z,1015.04
2019-01-11T10:25:49.502Z,1014.98
2019-01-11T10:27:10.553Z,1014.98
2019-01-11T10:27:49.430Z,1014.96
2019-01-11T10:28:49.393Z,1014.96
2019-01-11T10:29:51.149Z,1014.95
2019-01-11T10:30:49.420Z,1014.90
2019-01-11T10:31:49.294Z,1014.91
2019-01-11T10:32:49.324Z,1014.87
2019-01-11T10:33:49.225Z,1014.85
2019-01-11T10:34:49.248Z,1014.84
2019-01-11T10:35:49.165Z,1014.88
2019-01-11T10:36:49.135Z,1014.83
2019-01-11T10:37:49.233Z,1014.85
2019-01-11T10:38:49.063Z,1014.83
2019-01-11T10:39:49.035Z,1014.86
2019-01-11T10:40:48.991Z,1014.88
2019-01-11T10:41:49.052Z,1014.85
2019-01-11T10:42:48.934Z,1014.82
2019-01-11T10:43:48.921Z,1014.86
2019-01-11T10:44:48.868Z,1014.84
2019-01-11T10:45:48.841Z,1014.90
2019-01-11T10:46:49.146Z,1014.87
2019-01-11T10:47:48.846Z,1014.85
2019-01-11T10:48:48.738Z,1014.86
2019-01-11T10:49:48.727Z,1014.87
2019-01-11T10:50:48.680Z,1014.86
2019-01-11T10:51:48.651Z,1014.86
2019-01-11T10:52:48.630Z,1014.81
2019-01-11T10:53:48.564Z,1014.84
2019-01-11T10:54:48.540Z,1014.84
2019-01-11T10:55:48.498Z,1014.84
2019-01-11T10:56:48.486Z,1014.81
2019-01-11T10:57:48.443Z,1014.82
2019-01-11T10:58:48.418Z,1014.86
2019-01-11T10:59:48.365Z,1014.79
2019-01-11T11:00:48.334Z,1014.80
2019-01-11T11:01:48.302Z,1014.79
2019-01-11T11:02:48.290Z,1014.78
2019-01-11T11:03:48.259Z,1014.83
2019-01-11T11:04:48.218Z,1014.75
2019-01-11T11:05:48.171Z,1014.82
2019-01-11T11:06:48.154Z,1014.74
2019-01-11T11:07:48.124Z,1014.75
2019-01-11T11:08:48.083Z,1014.75
2019-01-11T11:09:48.037Z,1014.76
2019-01-11T11:10:48.038Z,1014.70
2019-01-11T11:11:47.990Z,1014.70
2019-01-11T11:12:48.330Z,1014.67
2019-01-11T11:13:47.918Z,1014.63
2019-01-11T11:14:47.884Z,1014.66
2019-01-11T11:15:48.009Z,1014.62
2019-01-11T11:16:47.816Z,1014.69
2019-01-11T11:17:47.891Z,1014.66
2019-01-11T11:18:47.747Z,1014.65
2019-01-11T11:19:47.818Z,1014.70
2019-01-11T11:20:47.685Z,1014.68
2019-01-11T11:21:47.649Z,1014.67
2019-01-11T11:22:47.635Z,1014.67
2019-01-11T11:23:48.419Z,1014.68
2019-01-11T11:24:47.559Z,1014.63
2019-01-11T11:25:47.532Z,1014.66
2019-01-11T11:26:47.499Z,1014.66
2019-01-11T11:27:47.591Z,1014.64
2019-01-11T11:28:47.443Z,1014.60
2019-01-11T11:29:48.488Z,1014.58
2019-01-11T11:30:50.933Z,1014.55
2019-01-11T11:31:47.324Z,1014.56
2019-01-11T11:32:47.539Z,1014.56
2019-01-11T11:33:47.253Z,1014.53
2019-01-11T11:34:47.230Z,1014.54
2019-01-11T11:35:47.303Z,1014.53
2019-01-11T11:36:47.164Z,1014.48
2019-01-11T11:37:47.126Z,1014.45
2019-01-11T11:38:47.087Z,1014.47
2019-01-11T11:39:47.130Z,1014.51
2019-01-11T11:40:47.028Z,1014.51
2019-01-11T11:41:47.008Z,1014.52
2019-01-11T11:42:47.055Z,1014.45
2019-01-11T11:43:46.935Z,1014.47
2019-01-11T11:44:46.911Z,1014.46
2019-01-11T11:45:46.872Z,1014.45
2019-01-11T11:46:46.872Z,1014.42
2019-01-11T11:47:46.791Z,1014.45
2019-01-11T11:48:46.872Z,1014.41
2019-01-11T11:49:46.765Z,1014.39
2019-01-11T11:50:46.787Z,1014.35
2019-01-11T11:51:46.681Z,1014.32
2019-01-11T11:52:46.705Z,1014.37
2019-01-11T11:53:46.625Z,1014.37
2019-01-11T11:54:47.648Z,1014.35
2019-01-11T11:55:46.533Z,1014.29
2019-01-11T11:56:46.507Z,1014.30
2019-01-11T11:57:46.521Z,1014.35
2019-01-11T11:58:46.450Z,1014.28
2019-01-11T11:59:46.418Z,1014.24
2019-01-11T12:00:46.448Z,1014.21
2019-01-11T12:01:46.817Z,1014.21
2019-01-11T12:02:46.493Z,1014.22
2019-01-11T12:03:46.278Z,1014.22
2019-01-11T12:04:46.350Z,1014.18
2019-01-11T12:05:46.206Z,1014.16
2019-01-11T12:06:46.236Z,1014.14
2019-01-11T12:07:46.134Z,1014.14